sensor_id;sensor_type;location;lat;lon;timestamp;P1;durP1;ratioP1;P2;durP2;ratioP2
51248;SDS011;39642;47.556;18.728;2023-04-25T00:01:32;4.90;;;1.60;;
51248;SDS011;39642;47.556;18.728;2023-04-25T00:04:01;6.05;;;1.90;;
51248;SDS011;39642;47.556;18.728;2023-04-25T00:06:28;4.75;;;1.60;;
51248;SDS011;39642;47.556;18.728;2023-04-25T00:08:55;4.12;;;1.40;;
51248;SDS011;39642;47.556;18.728;2023-04-25T00:11:22;5.05;;;1.70;;
51248;SDS011;39642;47.556;18.728;2023-04-25T00:13:48;4.45;;;1.60;;
51248;SDS011;39642;47.556;18.728;2023-04-25T00:16:16;4.18;;;1.50;;
51248;SDS011;39642;47.556;18.728;2023-04-25T00:18:42;4.93;;;1.70;;
51248;SDS011;39642;47.556;18.728;2023-04-25T00:21:08;5.72;;;1.62;;
51248;SDS011;39642;47.556;18.728;2023-04-25T00:23:34;4.90;;;1.70;;
51248;SDS011;39642;47.556;18.728;2023-04-25T00:26:02;5.75;;;1.55;;
51248;SDS011;39642;47.556;18.728;2023-04-25T00:28:28;4.32;;;1.58;;
51248;SDS011;39642;47.556;18.728;2023-04-25T00:30:54;5.40;;;1.52;;
51248;SDS011;39642;47.556;18.728;2023-04-25T00:33:20;4.28;;;1.50;;
51248;SDS011;39642;47.556;18.728;2023-04-25T00:35:46;4.75;;;1.60;;
51248;SDS011;39642;47.556;18.728;2023-04-25T00:38:12;3.90;;;1.50;;
51248;SDS011;39642;47.556;18.728;2023-04-25T00:40:38;5.50;;;1.73;;
51248;SDS011;39642;47.556;18.728;2023-04-25T00:43:04;5.32;;;1.60;;
51248;SDS011;39642;47.556;18.728;2023-04-25T00:45:30;5.35;;;1.70;;
51248;SDS011;39642;47.556;18.728;2023-04-25T00:47:56;5.47;;;1.67;;
51248;SDS011;39642;47.556;18.728;2023-04-25T00:50:23;4.70;;;1.52;;
51248;SDS011;39642;47.556;18.728;2023-04-25T00:52:49;5.15;;;1.65;;
51248;SDS011;39642;47.556;18.728;2023-04-25T00:55:15;4.57;;;1.60;;
51248;SDS011;39642;47.556;18.728;2023-04-25T00:57:42;4.87;;;1.65;;
51248;SDS011;39642;47.556;18.728;2023-04-25T01:00:08;5.53;;;1.73;;
51248;SDS011;39642;47.556;18.728;2023-04-25T01:02:35;4.30;;;1.50;;
51248;SDS011;39642;47.556;18.728;2023-04-25T01:05:01;5.75;;;1.60;;
51248;SDS011;39642;47.556;18.728;2023-04-25T01:07:28;5.45;;;1.70;;
51248;SDS011;39642;47.556;18.728;2023-04-25T01:09:54;5.32;;;1.60;;
51248;SDS011;39642;47.556;18.728;2023-04-25T01:12:20;5.40;;;1.62;;
51248;SDS011;39642;47.556;18.728;2023-04-25T01:14:46;3.90;;;1.50;;
51248;SDS011;39642;47.556;18.728;2023-04-25T01:17:12;3.30;;;1.42;;
51248;SDS011;39642;47.556;18.728;2023-04-25T01:19:38;4.22;;;1.50;;
51248;SDS011;39642;47.556;18.728;2023-04-25T01:22:04;5.03;;;1.62;;
51248;SDS011;39642;47.556;18.728;2023-04-25T01:24:31;4.30;;;1.58;;
51248;SDS011;39642;47.556;18.728;2023-04-25T01:26:58;5.35;;;1.70;;
51248;SDS011;39642;47.556;18.728;2023-04-25T01:29:26;6.18;;;1.70;;
51248;SDS011;39642;47.556;18.728;2023-04-25T01:31:53;5.15;;;1.60;;
51248;SDS011;39642;47.556;18.728;2023-04-25T01:34:19;4.72;;;1.60;;
51248;SDS011;39642;47.556;18.728;2023-04-25T01:36:47;4.05;;;1.60;;
51248;SDS011;39642;47.556;18.728;2023-04-25T01:39:15;4.97;;;1.60;;
51248;SDS011;39642;47.556;18.728;2023-04-25T01:41:41;5.10;;;1.60;;
51248;SDS011;39642;47.556;18.728;2023-04-25T01:44:07;3.85;;;1.45;;
51248;SDS011;39642;47.556;18.728;2023-04-25T01:46:34;5.45;;;1.70;;
51248;SDS011;39642;47.556;18.728;2023-04-25T01:49:00;4.65;;;1.50;;
51248;SDS011;39642;47.556;18.728;2023-04-25T01:51:26;5.07;;;1.60;;
51248;SDS011;39642;47.556;18.728;2023-04-25T01:53:52;3.65;;;1.50;;
51248;SDS011;39642;47.556;18.728;2023-04-25T01:56:19;4.53;;;1.50;;
51248;SDS011;39642;47.556;18.728;2023-04-25T01:58:45;4.37;;;1.55;;
51248;SDS011;39642;47.556;18.728;2023-04-25T02:01:11;5.78;;;1.73;;
51248;SDS011;39642;47.556;18.728;2023-04-25T02:03:37;5.55;;;1.60;;
51248;SDS011;39642;47.556;18.728;2023-04-25T02:06:03;5.28;;;1.75;;
51248;SDS011;39642;47.556;18.728;2023-04-25T02:08:29;4.10;;;1.50;;
51248;SDS011;39642;47.556;18.728;2023-04-25T02:10:57;4.68;;;1.58;;
51248;SDS011;39642;47.556;18.728;2023-04-25T02:13:23;4.85;;;1.50;;
51248;SDS011;39642;47.556;18.728;2023-04-25T02:15:49;4.55;;;1.55;;
51248;SDS011;39642;47.556;18.728;2023-04-25T02:18:15;4.95;;;1.70;;
51248;SDS011;39642;47.556;18.728;2023-04-25T02:20:44;5.50;;;1.70;;
51248;SDS011;39642;47.556;18.728;2023-04-25T02:23:10;4.15;;;1.50;;
51248;SDS011;39642;47.556;18.728;2023-04-25T02:25:36;5.05;;;1.60;;
51248;SDS011;39642;47.556;18.728;2023-04-25T02:28:02;4.72;;;1.60;;
51248;SDS011;39642;47.556;18.728;2023-04-25T02:30:28;5.37;;;1.60;;
51248;SDS011;39642;47.556;18.728;2023-04-25T02:32:54;5.28;;;1.50;;
51248;SDS011;39642;47.556;18.728;2023-04-25T02:35:20;4.00;;;1.50;;
51248;SDS011;39642;47.556;18.728;2023-04-25T02:37:46;3.87;;;1.50;;
51248;SDS011;39642;47.556;18.728;2023-04-25T02:40:12;4.93;;;1.50;;
51248;SDS011;39642;47.556;18.728;2023-04-25T02:42:37;4.57;;;1.60;;
51248;SDS011;39642;47.556;18.728;2023-04-25T02:45:03;3.62;;;1.50;;
51248;SDS011;39642;47.556;18.728;2023-04-25T02:47:30;5.07;;;1.50;;
51248;SDS011;39642;47.556;18.728;2023-04-25T02:49:56;5.03;;;1.62;;
51248;SDS011;39642;47.556;18.728;2023-04-25T02:52:22;4.68;;;1.65;;
51248;SDS011;39642;47.556;18.728;2023-04-25T02:54:48;4.68;;;1.58;;
51248;SDS011;39642;47.556;18.728;2023-04-25T02:57:14;4.75;;;1.60;;
51248;SDS011;39642;47.556;18.728;2023-04-25T02:59:40;4.30;;;1.58;;
51248;SDS011;39642;47.556;18.728;2023-04-25T03:02:06;3.83;;;1.52;;
51248;SDS011;39642;47.556;18.728;2023-04-25T03:04:32;5.12;;;1.50;;
51248;SDS011;39642;47.556;18.728;2023-04-25T03:06:58;4.50;;;1.50;;
51248;SDS011;39642;47.556;18.728;2023-04-25T03:09:25;5.22;;;1.50;;
51248;SDS011;39642;47.556;18.728;2023-04-25T03:11:50;4.72;;;1.50;;
51248;SDS011;39642;47.556;18.728;2023-04-25T03:14:16;3.58;;;1.40;;
51248;SDS011;39642;47.556;18.728;2023-04-25T03:16:42;4.57;;;1.52;;
51248;SDS011;39642;47.556;18.728;2023-04-25T03:19:08;4.20;;;1.50;;
51248;SDS011;39642;47.556;18.728;2023-04-25T03:21:35;3.90;;;1.42;;
51248;SDS011;39642;47.556;18.728;2023-04-25T03:24:02;3.35;;;1.45;;
51248;SDS011;39642;47.556;18.728;2023-04-25T03:26:29;3.72;;;1.40;;
51248;SDS011;39642;47.556;18.728;2023-04-25T03:28:55;5.30;;;1.60;;
51248;SDS011;39642;47.556;18.728;2023-04-25T03:31:21;3.90;;;1.50;;
51248;SDS011;39642;47.556;18.728;2023-04-25T03:33:47;3.75;;;1.40;;
51248;SDS011;39642;47.556;18.728;2023-04-25T03:36:13;3.65;;;1.40;;
51248;SDS011;39642;47.556;18.728;2023-04-25T03:38:40;4.15;;;1.50;;
51248;SDS011;39642;47.556;18.728;2023-04-25T03:41:07;4.03;;;1.52;;
51248;SDS011;39642;47.556;18.728;2023-04-25T03:43:33;4.70;;;1.60;;
51248;SDS011;39642;47.556;18.728;2023-04-25T03:45:59;4.30;;;1.65;;
51248;SDS011;39642;47.556;18.728;2023-04-25T03:48:26;5.25;;;1.60;;
51248;SDS011;39642;47.556;18.728;2023-04-25T03:50:53;3.72;;;1.42;;
51248;SDS011;39642;47.556;18.728;2023-04-25T03:53:19;5.40;;;1.70;;
51248;SDS011;39642;47.556;18.728;2023-04-25T03:55:45;4.93;;;1.58;;
51248;SDS011;39642;47.556;18.728;2023-04-25T03:58:11;4.78;;;1.58;;
51248;SDS011;39642;47.556;18.728;2023-04-25T04:00:37;4.45;;;1.60;;
51248;SDS011;39642;47.556;18.728;2023-04-25T04:03:02;3.65;;;1.45;;
51248;SDS011;39642;47.556;18.728;2023-04-25T04:05:28;4.05;;;1.40;;
51248;SDS011;39642;47.556;18.728;2023-04-25T04:07:54;3.90;;;1.50;;
51248;SDS011;39642;47.556;18.728;2023-04-25T04:10:20;4.90;;;1.60;;
51248;SDS011;39642;47.556;18.728;2023-04-25T04:12:47;3.80;;;1.50;;
51248;SDS011;39642;47.556;18.728;2023-04-25T04:15:13;3.28;;;1.40;;
51248;SDS011;39642;47.556;18.728;2023-04-25T04:17:39;5.20;;;1.80;;
51248;SDS011;39642;47.556;18.728;2023-04-25T04:20:06;3.87;;;1.50;;
51248;SDS011;39642;47.556;18.728;2023-04-25T04:22:33;6.75;;;1.90;;
51248;SDS011;39642;47.556;18.728;2023-04-25T04:25:00;5.57;;;1.62;;
51248;SDS011;39642;47.556;18.728;2023-04-25T04:27:26;5.12;;;1.70;;
51248;SDS011;39642;47.556;18.728;2023-04-25T04:29:51;6.10;;;1.67;;
51248;SDS011;39642;47.556;18.728;2023-04-25T04:32:18;3.83;;;1.40;;
51248;SDS011;39642;47.556;18.728;2023-04-25T04:34:44;5.43;;;1.70;;
51248;SDS011;39642;47.556;18.728;2023-04-25T04:37:10;4.45;;;1.50;;
51248;SDS011;39642;47.556;18.728;2023-04-25T04:39:38;4.07;;;1.52;;
51248;SDS011;39642;47.556;18.728;2023-04-25T04:42:04;5.43;;;1.60;;
51248;SDS011;39642;47.556;18.728;2023-04-25T04:44:30;5.43;;;1.75;;
51248;SDS011;39642;47.556;18.728;2023-04-25T04:46:59;5.82;;;1.83;;
51248;SDS011;39642;47.556;18.728;2023-04-25T04:49:25;7.55;;;2.08;;
51248;SDS011;39642;47.556;18.728;2023-04-25T04:51:51;8.18;;;2.05;;
51248;SDS011;39642;47.556;18.728;2023-04-25T04:54:17;7.60;;;1.87;;
51248;SDS011;39642;47.556;18.728;2023-04-25T04:56:43;8.07;;;2.00;;
51248;SDS011;39642;47.556;18.728;2023-04-25T04:59:09;7.30;;;2.05;;
51248;SDS011;39642;47.556;18.728;2023-04-25T05:01:36;8.00;;;2.42;;
51248;SDS011;39642;47.556;18.728;2023-04-25T05:04:02;8.30;;;2.28;;
51248;SDS011;39642;47.556;18.728;2023-04-25T05:06:28;8.48;;;2.60;;
51248;SDS011;39642;47.556;18.728;2023-04-25T05:08:55;7.97;;;2.40;;
51248;SDS011;39642;47.556;18.728;2023-04-25T05:11:22;11.82;;;4.30;;
51248;SDS011;39642;47.556;18.728;2023-04-25T05:13:49;11.65;;;3.53;;
51248;SDS011;39642;47.556;18.728;2023-04-25T05:16:16;17.42;;;7.32;;
51248;SDS011;39642;47.556;18.728;2023-04-25T05:18:42;16.05;;;6.20;;
51248;SDS011;39642;47.556;18.728;2023-04-25T05:21:08;8.90;;;3.17;;
51248;SDS011;39642;47.556;18.728;2023-04-25T05:23:34;27.90;;;10.60;;
51248;SDS011;39642;47.556;18.728;2023-04-25T05:26:01;25.83;;;10.75;;
51248;SDS011;39642;47.556;18.728;2023-04-25T05:28:27;17.62;;;6.82;;
51248;SDS011;39642;47.556;18.728;2023-04-25T05:30:52;16.75;;;7.30;;
51248;SDS011;39642;47.556;18.728;2023-04-25T05:33:18;20.12;;;5.95;;
51248;SDS011;39642;47.556;18.728;2023-04-25T05:35:44;14.93;;;5.40;;
51248;SDS011;39642;47.556;18.728;2023-04-25T05:38:10;17.25;;;6.28;;
51248;SDS011;39642;47.556;18.728;2023-04-25T05:40:36;19.92;;;6.43;;
51248;SDS011;39642;47.556;18.728;2023-04-25T05:43:02;16.70;;;5.90;;
51248;SDS011;39642;47.556;18.728;2023-04-25T05:45:28;18.02;;;4.07;;
51248;SDS011;39642;47.556;18.728;2023-04-25T05:47:54;14.20;;;5.30;;
51248;SDS011;39642;47.556;18.728;2023-04-25T05:50:20;21.67;;;4.43;;
51248;SDS011;39642;47.556;18.728;2023-04-25T05:52:46;14.60;;;5.15;;
51248;SDS011;39642;47.556;18.728;2023-04-25T05:55:12;14.87;;;4.22;;
51248;SDS011;39642;47.556;18.728;2023-04-25T05:57:39;12.65;;;4.40;;
51248;SDS011;39642;47.556;18.728;2023-04-25T06:00:07;12.30;;;3.65;;
51248;SDS011;39642;47.556;18.728;2023-04-25T06:02:34;16.30;;;4.50;;
51248;SDS011;39642;47.556;18.728;2023-04-25T06:05:00;11.77;;;3.10;;
51248;SDS011;39642;47.556;18.728;2023-04-25T06:07:29;11.43;;;3.40;;
51248;SDS011;39642;47.556;18.728;2023-04-25T06:09:56;11.63;;;3.42;;
51248;SDS011;39642;47.556;18.728;2023-04-25T06:12:22;10.45;;;3.08;;
51248;SDS011;39642;47.556;18.728;2023-04-25T06:14:48;11.55;;;3.20;;
51248;SDS011;39642;47.556;18.728;2023-04-25T06:17:13;11.43;;;3.25;;
51248;SDS011;39642;47.556;18.728;2023-04-25T06:19:39;10.98;;;3.00;;
51248;SDS011;39642;47.556;18.728;2023-04-25T06:22:06;13.13;;;3.10;;
51248;SDS011;39642;47.556;18.728;2023-04-25T06:24:33;13.85;;;3.00;;
51248;SDS011;39642;47.556;18.728;2023-04-25T06:26:59;13.52;;;3.12;;
51248;SDS011;39642;47.556;18.728;2023-04-25T06:29:25;9.38;;;2.72;;
51248;SDS011;39642;47.556;18.728;2023-04-25T06:31:51;11.10;;;2.97;;
51248;SDS011;39642;47.556;18.728;2023-04-25T06:34:17;10.60;;;2.60;;
51248;SDS011;39642;47.556;18.728;2023-04-25T06:36:43;9.60;;;2.55;;
51248;SDS011;39642;47.556;18.728;2023-04-25T06:39:10;9.05;;;2.37;;
51248;SDS011;39642;47.556;18.728;2023-04-25T06:41:36;10.27;;;2.60;;
51248;SDS011;39642;47.556;18.728;2023-04-25T06:44:02;11.50;;;2.72;;
51248;SDS011;39642;47.556;18.728;2023-04-25T06:46:28;11.45;;;2.50;;
51248;SDS011;39642;47.556;18.728;2023-04-25T06:48:54;8.75;;;2.70;;
51248;SDS011;39642;47.556;18.728;2023-04-25T06:51:20;9.10;;;2.40;;
51248;SDS011;39642;47.556;18.728;2023-04-25T06:53:47;11.68;;;2.80;;
51248;SDS011;39642;47.556;18.728;2023-04-25T06:56:13;17.75;;;3.10;;
51248;SDS011;39642;47.556;18.728;2023-04-25T06:58:39;16.10;;;2.90;;
51248;SDS011;39642;47.556;18.728;2023-04-25T07:01:04;26.20;;;3.58;;
51248;SDS011;39642;47.556;18.728;2023-04-25T07:03:30;13.75;;;3.00;;
51248;SDS011;39642;47.556;18.728;2023-04-25T07:05:56;15.88;;;3.03;;
51248;SDS011;39642;47.556;18.728;2023-04-25T07:08:22;14.70;;;2.85;;
51248;SDS011;39642;47.556;18.728;2023-04-25T07:10:48;13.80;;;2.40;;
51248;SDS011;39642;47.556;18.728;2023-04-25T07:13:14;12.68;;;2.50;;
51248;SDS011;39642;47.556;18.728;2023-04-25T07:15:40;9.35;;;2.20;;
51248;SDS011;39642;47.556;18.728;2023-04-25T07:18:07;9.82;;;2.37;;
51248;SDS011;39642;47.556;18.728;2023-04-25T07:20:33;10.65;;;2.30;;
51248;SDS011;39642;47.556;18.728;2023-04-25T07:22:59;11.93;;;2.50;;
51248;SDS011;39642;47.556;18.728;2023-04-25T07:25:25;7.87;;;2.12;;
51248;SDS011;39642;47.556;18.728;2023-04-25T07:27:51;14.43;;;2.50;;
51248;SDS011;39642;47.556;18.728;2023-04-25T07:30:17;8.38;;;1.92;;
51248;SDS011;39642;47.556;18.728;2023-04-25T07:32:43;10.85;;;2.35;;
51248;SDS011;39642;47.556;18.728;2023-04-25T07:35:09;8.65;;;2.20;;
51248;SDS011;39642;47.556;18.728;2023-04-25T07:37:35;13.57;;;2.10;;
51248;SDS011;39642;47.556;18.728;2023-04-25T07:40:02;10.45;;;2.17;;
51248;SDS011;39642;47.556;18.728;2023-04-25T07:42:29;19.00;;;2.62;;
51248;SDS011;39642;47.556;18.728;2023-04-25T07:44:55;16.90;;;2.30;;
51248;SDS011;39642;47.556;18.728;2023-04-25T07:47:21;12.52;;;2.60;;
51248;SDS011;39642;47.556;18.728;2023-04-25T07:49:47;14.00;;;2.55;;
51248;SDS011;39642;47.556;18.728;2023-04-25T07:52:13;13.50;;;2.53;;
51248;SDS011;39642;47.556;18.728;2023-04-25T07:54:39;14.13;;;2.50;;
51248;SDS011;39642;47.556;18.728;2023-04-25T07:57:05;13.65;;;2.60;;
51248;SDS011;39642;47.556;18.728;2023-04-25T07:59:32;12.15;;;2.35;;
51248;SDS011;39642;47.556;18.728;2023-04-25T08:01:58;12.23;;;2.37;;
51248;SDS011;39642;47.556;18.728;2023-04-25T08:04:24;12.70;;;2.58;;
51248;SDS011;39642;47.556;18.728;2023-04-25T08:06:51;9.88;;;2.40;;
51248;SDS011;39642;47.556;18.728;2023-04-25T08:09:19;10.27;;;2.30;;
51248;SDS011;39642;47.556;18.728;2023-04-25T08:11:45;12.60;;;2.37;;
51248;SDS011;39642;47.556;18.728;2023-04-25T08:14:12;11.18;;;2.42;;
51248;SDS011;39642;47.556;18.728;2023-04-25T08:16:40;14.63;;;2.70;;
51248;SDS011;39642;47.556;18.728;2023-04-25T08:19:06;18.75;;;3.15;;
51248;SDS011;39642;47.556;18.728;2023-04-25T08:21:32;14.00;;;2.65;;
51248;SDS011;39642;47.556;18.728;2023-04-25T08:23:58;12.32;;;2.67;;
51248;SDS011;39642;47.556;18.728;2023-04-25T08:26:24;13.93;;;2.67;;
51248;SDS011;39642;47.556;18.728;2023-04-25T08:28:50;14.32;;;2.65;;
51248;SDS011;39642;47.556;18.728;2023-04-25T08:31:16;17.15;;;2.60;;
51248;SDS011;39642;47.556;18.728;2023-04-25T08:33:43;14.77;;;2.35;;
51248;SDS011;39642;47.556;18.728;2023-04-25T08:36:10;13.93;;;2.42;;
51248;SDS011;39642;47.556;18.728;2023-04-25T08:38:36;16.83;;;2.65;;
51248;SDS011;39642;47.556;18.728;2023-04-25T08:41:02;23.17;;;3.08;;
51248;SDS011;39642;47.556;18.728;2023-04-25T08:43:29;26.42;;;4.12;;
51248;SDS011;39642;47.556;18.728;2023-04-25T08:45:59;23.70;;;3.45;;
51248;SDS011;39642;47.556;18.728;2023-04-25T08:48:26;23.58;;;3.60;;
51248;SDS011;39642;47.556;18.728;2023-04-25T08:50:55;21.17;;;3.40;;
51248;SDS011;39642;47.556;18.728;2023-04-25T08:53:22;34.53;;;4.07;;
51248;SDS011;39642;47.556;18.728;2023-04-25T08:55:55;25.02;;;3.80;;
51248;SDS011;39642;47.556;18.728;2023-04-25T08:58:22;36.55;;;4.55;;
51248;SDS011;39642;47.556;18.728;2023-04-25T09:00:49;30.88;;;4.10;;
51248;SDS011;39642;47.556;18.728;2023-04-25T09:03:19;28.23;;;4.37;;
51248;SDS011;39642;47.556;18.728;2023-04-25T09:05:45;22.58;;;3.60;;
51248;SDS011;39642;47.556;18.728;2023-04-25T09:08:11;21.80;;;3.90;;
51248;SDS011;39642;47.556;18.728;2023-04-25T09:10:38;24.40;;;3.53;;
51248;SDS011;39642;47.556;18.728;2023-04-25T09:13:08;17.27;;;2.87;;
51248;SDS011;39642;47.556;18.728;2023-04-25T09:15:53;12.93;;;2.83;;
51248;SDS011;39642;47.556;18.728;2023-04-25T09:18:24;18.25;;;2.90;;
51248;SDS011;39642;47.556;18.728;2023-04-25T09:20:54;14.05;;;3.17;;
51248;SDS011;39642;47.556;18.728;2023-04-25T09:23:22;26.23;;;2.90;;
51248;SDS011;39642;47.556;18.728;2023-04-25T09:25:49;15.98;;;2.95;;
51248;SDS011;39642;47.556;18.728;2023-04-25T09:28:18;17.60;;;2.58;;
51248;SDS011;39642;47.556;18.728;2023-04-25T09:30:56;17.33;;;2.83;;
51248;SDS011;39642;47.556;18.728;2023-04-25T09:33:32;17.55;;;2.80;;
51248;SDS011;39642;47.556;18.728;2023-04-25T09:36:02;10.75;;;2.70;;
51248;SDS011;39642;47.556;18.728;2023-04-25T09:38:31;13.73;;;3.55;;
51248;SDS011;39642;47.556;18.728;2023-04-25T09:40:58;12.10;;;2.50;;
51248;SDS011;39642;47.556;18.728;2023-04-25T09:43:26;30.02;;;3.55;;
51248;SDS011;39642;47.556;18.728;2023-04-25T09:45:54;39.03;;;4.35;;
51248;SDS011;39642;47.556;18.728;2023-04-25T09:48:25;28.73;;;4.05;;
51248;SDS011;39642;47.556;18.728;2023-04-25T09:51:08;34.15;;;3.97;;
51248;SDS011;39642;47.556;18.728;2023-04-25T09:53:40;35.17;;;4.87;;
51248;SDS011;39642;47.556;18.728;2023-04-25T09:56:07;33.38;;;4.10;;
51248;SDS011;39642;47.556;18.728;2023-04-25T09:58:36;26.83;;;4.20;;
51248;SDS011;39642;47.556;18.728;2023-04-25T10:01:07;32.08;;;4.28;;
51248;SDS011;39642;47.556;18.728;2023-04-25T10:03:36;23.55;;;3.45;;
51248;SDS011;39642;47.556;18.728;2023-04-25T10:06:09;20.77;;;3.10;;
51248;SDS011;39642;47.556;18.728;2023-04-25T10:08:44;21.12;;;3.12;;
51248;SDS011;39642;47.556;18.728;2023-04-25T10:11:15;15.77;;;3.12;;
51248;SDS011;39642;47.556;18.728;2023-04-25T10:13:42;15.90;;;3.08;;
51248;SDS011;39642;47.556;18.728;2023-04-25T10:16:10;14.15;;;2.70;;
51248;SDS011;39642;47.556;18.728;2023-04-25T10:18:37;18.75;;;2.60;;
51248;SDS011;39642;47.556;18.728;2023-04-25T10:21:04;11.32;;;2.75;;
51248;SDS011;39642;47.556;18.728;2023-04-25T10:23:31;15.77;;;2.95;;
51248;SDS011;39642;47.556;18.728;2023-04-25T10:25:59;12.95;;;2.47;;
51248;SDS011;39642;47.556;18.728;2023-04-25T10:28:26;21.60;;;3.30;;
51248;SDS011;39642;47.556;18.728;2023-04-25T10:31:11;10.38;;;2.30;;
51248;SDS011;39642;47.556;18.728;2023-04-25T10:33:41;13.35;;;2.53;;
51248;SDS011;39642;47.556;18.728;2023-04-25T10:36:09;15.88;;;2.53;;
51248;SDS011;39642;47.556;18.728;2023-04-25T10:38:36;19.33;;;3.15;;
51248;SDS011;39642;47.556;18.728;2023-04-25T10:41:04;23.35;;;4.10;;
51248;SDS011;39642;47.556;18.728;2023-04-25T10:43:35;25.48;;;3.53;;
51248;SDS011;39642;47.556;18.728;2023-04-25T10:46:15;30.08;;;3.72;;
51248;SDS011;39642;47.556;18.728;2023-04-25T10:59:06;27.80;;;3.87;;
51248;SDS011;39642;47.556;18.728;2023-04-25T11:01:45;37.05;;;6.25;;
51248;SDS011;39642;47.556;18.728;2023-04-25T11:04:19;34.20;;;6.47;;
51248;SDS011;39642;47.556;18.728;2023-04-25T11:06:52;31.55;;;6.28;;
51248;SDS011;39642;47.556;18.728;2023-04-25T11:09:29;30.55;;;5.18;;
51248;SDS011;39642;47.556;18.728;2023-04-25T11:11:58;25.30;;;4.45;;
51248;SDS011;39642;47.556;18.728;2023-04-25T11:14:26;28.33;;;5.53;;
51248;SDS011;39642;47.556;18.728;2023-04-25T11:16:53;23.40;;;4.53;;
51248;SDS011;39642;47.556;18.728;2023-04-25T11:19:21;22.80;;;3.83;;
51248;SDS011;39642;47.556;18.728;2023-04-25T11:21:47;25.30;;;4.15;;
51248;SDS011;39642;47.556;18.728;2023-04-25T11:24:13;20.88;;;3.67;;
51248;SDS011;39642;47.556;18.728;2023-04-25T11:26:41;23.58;;;3.72;;
51248;SDS011;39642;47.556;18.728;2023-04-25T11:29:08;20.70;;;3.55;;
51248;SDS011;39642;47.556;18.728;2023-04-25T11:31:35;24.63;;;3.60;;
51248;SDS011;39642;47.556;18.728;2023-04-25T11:34:01;22.90;;;3.58;;
51248;SDS011;39642;47.556;18.728;2023-04-25T11:36:28;16.85;;;3.70;;
51248;SDS011;39642;47.556;18.728;2023-04-25T11:38:54;20.08;;;3.67;;
51248;SDS011;39642;47.556;18.728;2023-04-25T11:41:20;31.60;;;3.90;;
51248;SDS011;39642;47.556;18.728;2023-04-25T11:43:47;42.78;;;4.95;;
51248;SDS011;39642;47.556;18.728;2023-04-25T11:46:14;28.48;;;3.75;;
51248;SDS011;39642;47.556;18.728;2023-04-25T11:48:41;25.75;;;3.60;;
51248;SDS011;39642;47.556;18.728;2023-04-25T11:51:08;28.25;;;3.78;;
51248;SDS011;39642;47.556;18.728;2023-04-25T11:53:34;25.10;;;3.10;;
51248;SDS011;39642;47.556;18.728;2023-04-25T11:56:00;25.45;;;3.72;;
51248;SDS011;39642;47.556;18.728;2023-04-25T11:58:26;27.13;;;3.40;;
51248;SDS011;39642;47.556;18.728;2023-04-25T12:00:52;20.37;;;2.90;;
51248;SDS011;39642;47.556;18.728;2023-04-25T12:03:18;19.37;;;2.72;;
51248;SDS011;39642;47.556;18.728;2023-04-25T12:05:45;11.00;;;2.22;;
51248;SDS011;39642;47.556;18.728;2023-04-25T12:08:15;15.98;;;2.55;;
51248;SDS011;39642;47.556;18.728;2023-04-25T12:10:42;13.90;;;2.45;;
51248;SDS011;39642;47.556;18.728;2023-04-25T12:13:23;16.37;;;2.40;;
51248;SDS011;39642;47.556;18.728;2023-04-25T12:15:50;16.55;;;2.80;;
51248;SDS011;39642;47.556;18.728;2023-04-25T12:18:23;17.60;;;2.60;;
51248;SDS011;39642;47.556;18.728;2023-04-25T12:20:52;19.33;;;3.12;;
51248;SDS011;39642;47.556;18.728;2023-04-25T12:23:24;12.85;;;2.87;;
51248;SDS011;39642;47.556;18.728;2023-04-25T12:28:21;19.83;;;2.80;;
51248;SDS011;39642;47.556;18.728;2023-04-25T12:30:59;18.92;;;2.78;;
51248;SDS011;39642;47.556;18.728;2023-04-25T12:33:28;18.98;;;3.17;;
51248;SDS011;39642;47.556;18.728;2023-04-25T12:35:55;19.15;;;2.83;;
51248;SDS011;39642;47.556;18.728;2023-04-25T12:38:27;14.95;;;3.08;;
51248;SDS011;39642;47.556;18.728;2023-04-25T12:40:59;13.13;;;2.42;;
51248;SDS011;39642;47.556;18.728;2023-04-25T12:43:25;18.70;;;3.00;;
51248;SDS011;39642;47.556;18.728;2023-04-25T12:45:52;15.15;;;2.60;;
51248;SDS011;39642;47.556;18.728;2023-04-25T12:48:19;13.50;;;2.50;;
51248;SDS011;39642;47.556;18.728;2023-04-25T12:50:46;18.65;;;3.17;;
51248;SDS011;39642;47.556;18.728;2023-04-25T12:53:15;18.85;;;2.37;;
51248;SDS011;39642;47.556;18.728;2023-04-25T12:55:41;16.83;;;2.65;;
51248;SDS011;39642;47.556;18.728;2023-04-25T12:58:07;16.80;;;2.58;;
51248;SDS011;39642;47.556;18.728;2023-04-25T13:00:33;15.95;;;2.72;;
51248;SDS011;39642;47.556;18.728;2023-04-25T13:02:59;17.95;;;2.70;;
51248;SDS011;39642;47.556;18.728;2023-04-25T13:05:25;21.25;;;2.92;;
51248;SDS011;39642;47.556;18.728;2023-04-25T13:07:51;13.55;;;2.35;;
51248;SDS011;39642;47.556;18.728;2023-04-25T13:10:17;15.55;;;2.62;;
51248;SDS011;39642;47.556;18.728;2023-04-25T13:12:43;19.05;;;2.92;;
51248;SDS011;39642;47.556;18.728;2023-04-25T13:15:09;15.52;;;2.78;;
51248;SDS011;39642;47.556;18.728;2023-04-25T13:17:37;16.60;;;2.70;;
51248;SDS011;39642;47.556;18.728;2023-04-25T13:20:04;16.77;;;2.87;;
51248;SDS011;39642;47.556;18.728;2023-04-25T13:22:35;17.33;;;2.80;;
51248;SDS011;39642;47.556;18.728;2023-04-25T13:25:03;13.93;;;2.83;;
51248;SDS011;39642;47.556;18.728;2023-04-25T13:27:30;19.30;;;2.95;;
51248;SDS011;39642;47.556;18.728;2023-04-25T13:29:58;14.07;;;2.70;;
51248;SDS011;39642;47.556;18.728;2023-04-25T13:32:24;13.82;;;2.87;;
51248;SDS011;39642;47.556;18.728;2023-04-25T13:34:50;14.38;;;2.50;;
51248;SDS011;39642;47.556;18.728;2023-04-25T13:37:17;14.32;;;2.37;;
51248;SDS011;39642;47.556;18.728;2023-04-25T13:39:43;14.93;;;2.67;;
51248;SDS011;39642;47.556;18.728;2023-04-25T13:42:08;16.23;;;2.95;;
51248;SDS011;39642;47.556;18.728;2023-04-25T13:44:34;21.02;;;2.85;;
51248;SDS011;39642;47.556;18.728;2023-04-25T13:47:00;18.12;;;2.80;;
51248;SDS011;39642;47.556;18.728;2023-04-25T13:49:26;21.00;;;3.05;;
51248;SDS011;39642;47.556;18.728;2023-04-25T13:51:52;24.70;;;3.37;;
51248;SDS011;39642;47.556;18.728;2023-04-25T13:54:18;16.92;;;2.55;;
51248;SDS011;39642;47.556;18.728;2023-04-25T13:56:44;17.27;;;3.30;;
51248;SDS011;39642;47.556;18.728;2023-04-25T13:59:11;17.52;;;2.80;;
51248;SDS011;39642;47.556;18.728;2023-04-25T14:01:36;30.00;;;3.50;;
51248;SDS011;39642;47.556;18.728;2023-04-25T14:04:03;22.27;;;3.30;;
51248;SDS011;39642;47.556;18.728;2023-04-25T14:06:30;30.42;;;4.20;;
51248;SDS011;39642;47.556;18.728;2023-04-25T14:08:57;29.58;;;4.30;;
51248;SDS011;39642;47.556;18.728;2023-04-25T14:11:23;25.62;;;4.18;;
51248;SDS011;39642;47.556;18.728;2023-04-25T14:13:49;15.75;;;3.25;;
51248;SDS011;39642;47.556;18.728;2023-04-25T14:16:15;19.95;;;3.30;;
51248;SDS011;39642;47.556;18.728;2023-04-25T14:18:41;23.05;;;4.05;;
51248;SDS011;39642;47.556;18.728;2023-04-25T14:21:07;29.42;;;4.00;;
51248;SDS011;39642;47.556;18.728;2023-04-25T14:23:34;31.10;;;4.47;;
51248;SDS011;39642;47.556;18.728;2023-04-25T14:26:00;33.65;;;4.45;;
51248;SDS011;39642;47.556;18.728;2023-04-25T14:28:27;36.40;;;4.62;;
51248;SDS011;39642;47.556;18.728;2023-04-25T14:30:53;31.00;;;4.32;;
51248;SDS011;39642;47.556;18.728;2023-04-25T14:33:18;25.52;;;3.45;;
51248;SDS011;39642;47.556;18.728;2023-04-25T14:35:44;21.62;;;3.62;;
51248;SDS011;39642;47.556;18.728;2023-04-25T14:38:11;23.83;;;3.20;;